createdAt,value
2018-06-08T00:02:12.731Z,101178.24
2018-06-08T00:04:39.624Z,101179.46
2018-06-08T00:07:06.524Z,101176.27
2018-06-08T00:09:33.459Z,101185.34
2018-06-08T00:12:00.351Z,101182.58
2018-06-08T00:14:27.241Z,101188.86
2018-06-08T00:16:54.141Z,101187.47
2018-06-08T00:19:21.031Z,101185.34
2018-06-08T00:21:47.919Z,101181.31
2018-06-08T00:24:14.813Z,101177.99
2018-06-08T00:26:41.707Z,101173.73
2018-06-08T00:29:08.596Z,101179.98
2018-06-08T00:31:35.500Z,101177.60
2018-06-08T00:34:02.387Z,101170.66
2018-06-08T00:36:29.281Z,101172.13
2018-06-08T00:38:56.179Z,101172.37
2018-06-08T00:41:23.071Z,101173.78
2018-06-08T00:43:49.954Z,101169.84
2018-06-08T00:46:16.860Z,101179.34
2018-06-08T00:48:43.755Z,101185.20
2018-06-08T00:51:10.651Z,101178.92
2018-06-08T00:53:37.524Z,101178.83
2018-06-08T00:56:04.943Z,101176.52
2018-06-08T00:58:31.836Z,101167.83
2018-06-08T01:00:58.717Z,101166.48
2018-06-08T01:03:25.604Z,101162.38
2018-06-08T01:05:52.501Z,101165.28
2018-06-08T01:08:19.407Z,101159.88
2018-06-08T01:10:46.288Z,101164.60
2018-06-08T01:13:13.180Z,101160.96
2018-06-08T01:15:40.832Z,101165.52
2018-06-08T01:18:07.844Z,101165.84
2018-06-08T01:20:34.748Z,101169.16
2018-06-08T01:23:01.674Z,101172.02
2018-06-08T01:25:28.579Z,101168.09
2018-06-08T01:27:55.467Z,101174.17
2018-06-08T01:30:22.373Z,101167.44
2018-06-08T01:32:49.264Z,101169.37
2018-06-08T01:35:16.152Z,101167.43
2018-06-08T01:37:43.067Z,101167.55
2018-06-08T01:40:09.953Z,101165.95
2018-06-08T01:42:36.836Z,101157.50
2018-06-08T01:45:03.766Z,101148.76
2018-06-08T01:47:30.653Z,101160.75
2018-06-08T01:49:57.532Z,101155.19
2018-06-08T01:52:24.416Z,101160.79
2018-06-08T01:54:51.303Z,101162.52
2018-06-08T01:57:18.188Z,101159.94
2018-06-08T01:59:45.068Z,101157.64
2018-06-08T02:02:11.967Z,101159.27
2018-06-08T02:04:38.841Z,101161.75
2018-06-08T02:07:05.740Z,101154.49
2018-06-08T02:09:32.943Z,101151.67
2018-06-08T02:11:59.887Z,101151.55
2018-06-08T02:14:26.752Z,101155.55
2018-06-08T02:16:53.645Z,101152.31
2018-06-08T02:19:21.024Z,101144.56
2018-06-08T02:21:47.914Z,101148.83
2018-06-08T02:24:14.796Z,101150.06
2018-06-08T02:26:41.688Z,101154.50
2018-06-08T02:29:08.564Z,101148.31
2018-06-08T02:31:35.461Z,101149.48
2018-06-08T02:34:02.353Z,101151.05
2018-06-08T02:36:29.264Z,101149.30
2018-06-08T02:38:56.133Z,101153.77
2018-06-08T02:41:23.064Z,101151.68
2018-06-08T02:43:49.961Z,101151.86
2018-06-08T02:46:16.870Z,101158.36
2018-06-08T02:48:43.916Z,101156.24
2018-06-08T02:51:10.816Z,101148.86
2018-06-08T02:53:37.745Z,101148.03
2018-06-08T02:56:04.676Z,101154.75
2018-06-08T02:58:31.581Z,101150.00
2018-06-08T03:00:58.487Z,101154.16
2018-06-08T03:03:25.390Z,101153.66
2018-06-08T03:05:52.308Z,101155.22
2018-06-08T03:08:19.209Z,101160.83
2018-06-08T03:10:46.084Z,101168.42
2018-06-08T03:13:12.986Z,101166.23
2018-06-08T03:15:39.885Z,101164.95
2018-06-08T03:18:06.764Z,101155.33
2018-06-08T03:20:33.659Z,101160.36
2018-06-08T03:23:00.561Z,101154.58
2018-06-08T03:25:27.452Z,101156.73
2018-06-08T03:27:54.348Z,101149.25
2018-06-08T03:30:21.232Z,101159.55
2018-06-08T03:32:48.151Z,101158.03
2018-06-08T03:35:15.061Z,101154.67
2018-06-08T03:37:41.965Z,101150.13
2018-06-08T03:40:08.872Z,101156.09
2018-06-08T03:42:35.776Z,101157.31
2018-06-08T03:45:02.723Z,101164.54
2018-06-08T03:47:29.630Z,101157.12
2018-06-08T03:49:56.524Z,101155.61
2018-06-08T03:52:23.433Z,101149.46
2018-06-08T03:54:50.307Z,101155.16
2018-06-08T03:57:17.196Z,101154.21
2018-06-08T03:59:44.092Z,101161.32
2018-06-08T04:02:10.983Z,101145.98
2018-06-08T04:04:37.877Z,101157.99
2018-06-08T04:07:04.776Z,101160.47
2018-06-08T04:09:31.665Z,101153.84
2018-06-08T04:11:58.565Z,101153.70
2018-06-08T04:14:25.444Z,101149.02
2018-06-08T04:16:52.340Z,101150.98
2018-06-08T04:19:19.224Z,101147.29
2018-06-08T04:21:46.140Z,101151.45
2018-06-08T04:24:13.036Z,101152.11
2018-06-08T04:26:39.936Z,101148.09
2018-06-08T04:29:06.834Z,101153.37
2018-06-08T04:31:33.748Z,101157.48
2018-06-08T04:34:00.649Z,101156.64
2018-06-08T04:36:27.580Z,101159.42
2018-06-08T04:38:54.536Z,101160.33
2018-06-08T04:41:21.432Z,101161.63
2018-06-08T04:43:48.362Z,101161.12
2018-06-08T04:46:15.251Z,101163.63
2018-06-08T04:48:42.157Z,101163.77
2018-06-08T04:51:09.051Z,101166.38
2018-06-08T04:53:35.948Z,101169.13
2018-06-08T04:56:02.856Z,101174.61
2018-06-08T04:58:29.752Z,101176.98
2018-06-08T05:00:56.643Z,101183.48
2018-06-08T05:03:23.541Z,101179.93
2018-06-08T05:05:50.441Z,101176.91
2018-06-08T05:08:17.344Z,101180.69
2018-06-08T05:10:44.248Z,101181.88
2018-06-08T05:13:11.155Z,101181.55
2018-06-08T05:15:38.035Z,101181.31
2018-06-08T05:18:04.959Z,101174.61
2018-06-08T05:20:31.847Z,101177.91
2018-06-08T05:22:58.756Z,101178.15
2018-06-08T05:25:25.664Z,101169.33
2018-06-08T05:27:52.584Z,101170.84
2018-06-08T05:30:21.764Z,101176.13
2018-06-08T05:32:48.678Z,101173.36
2018-06-08T05:35:15.572Z,101176.49
2018-06-08T05:37:42.520Z,101178.56
2018-06-08T05:40:09.425Z,101181.19
2018-06-08T05:42:36.369Z,101182.13
2018-06-08T05:45:03.324Z,101175.33
2018-06-08T05:47:30.253Z,101183.02
2018-06-08T05:49:57.169Z,101174.18
2018-06-08T05:52:24.072Z,101179.19
2018-06-08T05:54:51.006Z,101178.91
2018-06-08T05:57:17.892Z,101181.55
2018-06-08T05:59:44.821Z,101177.39
2018-06-08T06:02:11.732Z,101180.02
2018-06-08T06:04:38.632Z,101173.89
2018-06-08T06:07:05.629Z,101179.23
2018-06-08T06:09:32.539Z,101177.91
2018-06-08T06:11:59.441Z,101191.77
2018-06-08T06:14:26.352Z,101187.84
2018-06-08T06:16:53.269Z,101191.95
2018-06-08T06:19:20.181Z,101180.92
2018-06-08T06:21:47.088Z,101184.75
2018-06-08T06:24:13.996Z,101191.34
2018-06-08T06:26:40.892Z,101184.72
2018-06-08T06:29:07.796Z,101183.89
2018-06-08T06:31:34.704Z,101189.70
2018-06-08T06:34:01.622Z,101195.23
2018-06-08T06:36:28.528Z,101193.78
2018-06-08T06:38:55.435Z,101188.36
2018-06-08T06:41:22.335Z,101186.27
2018-06-08T06:43:49.235Z,101190.58
2018-06-08T06:46:16.171Z,101188.81
2018-06-08T06:48:43.077Z,101198.98
2018-06-08T06:51:09.976Z,101201.13
2018-06-08T06:53:36.892Z,101192.80
2018-06-08T06:56:03.832Z,101198.06
2018-06-08T06:58:30.749Z,101193.27
2018-06-08T07:00:57.635Z,101196.06
2018-06-08T07:03:24.569Z,101191.38
2018-06-08T07:05:51.480Z,101189.63
2018-06-08T07:08:18.394Z,101203.02
2018-06-08T07:10:45.293Z,101208.92
2018-06-08T07:13:12.216Z,101219.80
2018-06-08T07:15:39.112Z,101213.88
2018-06-08T07:18:06.020Z,101219.50
2018-06-08T07:20:32.939Z,101207.45
2018-06-08T07:22:59.844Z,101216.26
2018-06-08T07:25:26.760Z,101213.63
2018-06-08T07:27:53.656Z,101218.47
2018-06-08T07:30:20.568Z,101214.34
2018-06-08T07:32:47.477Z,101217.20
2018-06-08T07:35:14.384Z,101213.95
2018-06-08T07:37:41.264Z,101218.93
2018-06-08T07:40:08.227Z,101220.88
2018-06-08T07:42:35.079Z,101221.51
2018-06-08T07:45:01.976Z,101221.05
2018-06-08T07:47:28.871Z,101226.34
2018-06-08T07:49:55.772Z,101220.88
2018-06-08T07:52:22.674Z,101217.39
2018-06-08T07:54:49.572Z,101227.09
2018-06-08T07:57:16.456Z,101227.56
2018-06-08T07:59:43.366Z,101224.56
2018-06-08T08:02:10.272Z,101223.13
2018-06-08T08:04:37.180Z,101218.41
2018-06-08T08:07:04.178Z,101222.39
2018-06-08T08:09:31.084Z,101221.04
2018-06-08T08:11:57.976Z,101216.70
2018-06-08T08:14:24.911Z,101213.05
2018-06-08T08:16:51.824Z,101215.27
2018-06-08T08:19:18.780Z,101211.95
2018-06-08T08:21:45.642Z,101212.58
2018-06-08T08:24:12.520Z,101209.36
2018-06-08T08:26:39.413Z,101203.41
2018-06-08T08:29:06.295Z,101207.78
2018-06-08T08:31:33.183Z,101207.39
2018-06-08T08:34:00.048Z,101204.99
2018-06-08T08:36:26.988Z,101201.61
2018-06-08T08:38:53.847Z,101205.77
2018-06-08T08:41:20.753Z,101215.33
2018-06-08T08:43:47.616Z,101215.00
2018-06-08T08:46:14.489Z,101213.96
2018-06-08T08:48:41.398Z,101210.16
2018-06-08T08:51:08.294Z,101206.36
2018-06-08T08:53:35.167Z,101204.51
2018-06-08T08:56:02.062Z,101201.91
2018-06-08T08:58:28.945Z,101193.70
2018-06-08T09:00:55.836Z,101200.48
2018-06-08T09:03:22.703Z,101198.95
2018-06-08T09:05:49.587Z,101199.56
2018-06-08T09:08:16.488Z,101192.61
2018-06-08T09:10:43.372Z,101192.06
2018-06-08T09:13:10.243Z,101190.97
2018-06-08T09:15:37.110Z,101183.77
2018-06-08T09:18:04.226Z,101186.61
2018-06-08T09:20:31.217Z,101192.31
2018-06-08T09:22:58.095Z,101184.19
2018-06-08T09:25:24.984Z,101185.80
2018-06-08T09:27:51.868Z,101185.87
2018-06-08T09:30:18.763Z,101185.72
2018-06-08T09:32:45.640Z,101190.86
2018-06-08T09:35:13.604Z,101184.34
2018-06-08T09:37:40.482Z,101189.54
2018-06-08T09:40:07.356Z,101193.09
2018-06-08T09:42:34.255Z,101193.70
2018-06-08T09:45:01.141Z,101195.28
2018-06-08T09:47:28.048Z,101194.41
2018-06-08T09:49:54.958Z,101191.17
2018-06-08T09:52:21.857Z,101183.98
2018-06-08T09:54:48.791Z,101191.44
2018-06-08T09:57:15.667Z,101192.87
2018-06-08T09:59:42.568Z,101191.16
2018-06-08T10:02:09.475Z,101195.09
2018-06-08T10:04:37.032Z,101179.88
2018-06-08T10:07:03.963Z,101189.08
2018-06-08T10:09:30.849Z,101198.36
2018-06-08T10:11:57.812Z,101188.83
2018-06-08T10:14:24.712Z,101184.66
2018-06-08T10:16:51.613Z,101178.81
2018-06-08T10:19:18.560Z,101180.28
2018-06-08T10:21:45.477Z,101182.66
2018-06-08T10:24:12.404Z,101179.27
2018-06-08T10:26:39.296Z,101184.06
2018-06-08T10:29:06.229Z,101183.20
2018-06-08T10:31:33.107Z,101170.56
2018-06-08T10:34:00.023Z,101167.55
2018-06-08T10:36:27.779Z,101169.08
2018-06-08T10:38:54.708Z,101169.20
2018-06-08T10:41:21.617Z,101171.59
2018-06-08T10:43:48.520Z,101168.41
2018-06-08T10:46:15.412Z,101176.80
2018-06-08T10:48:42.320Z,101162.78
2018-06-08T10:51:09.209Z,101170.06
2018-06-08T10:53:36.116Z,101173.17
2018-06-08T10:56:03.116Z,101172.05
2018-06-08T10:58:30.229Z,101172.78
2018-06-08T11:00:57.141Z,101168.62
2018-06-08T11:03:24.089Z,101177.07
2018-06-08T11:05:51.308Z,101169.37
2018-06-08T11:08:18.556Z,101168.16
2018-06-08T11:10:45.451Z,101162.04
2018-06-08T11:13:12.475Z,101170.41
2018-06-08T11:15:39.360Z,101168.64
2018-06-08T11:18:06.273Z,101165.47
2018-06-08T11:20:33.156Z,101162.61
2018-06-08T11:23:00.070Z,101162.08
2018-06-08T11:25:27.011Z,101161.84
2018-06-08T11:27:53.925Z,101160.90
2018-06-08T11:30:20.816Z,101157.50
2018-06-08T11:32:47.708Z,101157.52
2018-06-08T11:35:14.612Z,101152.66
2018-06-08T11:37:41.485Z,101151.63
2018-06-08T11:40:08.376Z,101137.64
2018-06-08T11:42:35.273Z,101143.53
2018-06-08T11:45:02.206Z,101141.75
2018-06-08T11:47:29.109Z,101144.20
2018-06-08T11:49:56.020Z,101140.62
2018-06-08T11:52:22.917Z,101137.28
2018-06-08T11:54:49.829Z,101133.01
2018-06-08T11:57:16.713Z,101133.41
2018-06-08T11:59:43.619Z,101137.97
2018-06-08T12:02:10.512Z,101133.31
2018-06-08T12:04:37.432Z,101129.19
2018-06-08T12:07:04.351Z,101122.20
2018-06-08T12:09:31.270Z,101118.14
2018-06-08T12:11:58.148Z,101116.55
2018-06-08T12:14:25.056Z,101111.31
2018-06-08T12:16:51.963Z,101110.48
2018-06-08T12:19:18.881Z,101114.79
2018-06-08T12:21:45.781Z,101107.06
2018-06-08T12:24:12.674Z,101110.34
2018-06-08T12:26:39.557Z,101103.69
2018-06-08T12:29:06.429Z,101101.31
2018-06-08T12:31:33.320Z,101100.30
2018-06-08T12:34:00.196Z,101097.67
2018-06-08T12:36:27.095Z,101099.73
2018-06-08T12:38:53.972Z,101096.44
2018-06-08T12:41:20.868Z,101100.06
2018-06-08T12:43:47.756Z,101094.05
2018-06-08T12:46:14.648Z,101094.22
2018-06-08T12:48:41.533Z,101091.37
2018-06-08T12:51:08.597Z,101092.92
2018-06-08T12:53:35.480Z,101085.68
2018-06-08T12:56:02.392Z,101086.00
2018-06-08T12:58:29.257Z,101093.36
2018-06-08T13:00:56.135Z,101084.59
2018-06-08T13:03:23.017Z,101077.14
2018-06-08T13:05:49.897Z,101082.77
2018-06-08T13:08:16.804Z,101071.41
2018-06-08T13:10:43.719Z,101074.14
2018-06-08T13:13:10.599Z,101070.14
2018-06-08T13:15:37.502Z,101083.56
2018-06-08T13:18:04.533Z,101071.53
2018-06-08T13:20:31.444Z,101068.84
2018-06-08T13:22:58.341Z,101070.58
2018-06-08T13:25:25.240Z,101068.70
2018-06-08T13:27:52.148Z,101069.73
2018-06-08T13:30:19.945Z,101063.87
2018-06-08T13:32:46.843Z,101069.62
2018-06-08T13:35:13.784Z,101065.84
2018-06-08T13:37:40.693Z,101068.69
2018-06-08T13:40:07.589Z,101071.31
2018-06-08T13:42:34.564Z,101070.89
2018-06-08T13:45:01.460Z,101077.17
2018-06-08T13:47:28.413Z,101074.41
2018-06-08T13:49:55.307Z,101080.19
2018-06-08T13:52:22.196Z,101074.63
2018-06-08T13:54:49.097Z,101073.52
2018-06-08T13:57:16.025Z,101071.78
2018-06-08T13:59:42.911Z,101078.38
2018-06-08T14:02:09.801Z,101073.61
2018-06-08T14:04:36.700Z,101074.98
2018-06-08T14:07:03.687Z,101080.80
2018-06-08T14:09:30.583Z,101081.28
2018-06-08T14:11:57.523Z,101077.21
2018-06-08T14:14:24.394Z,101079.81
2018-06-08T14:16:51.312Z,101078.11
2018-06-08T14:19:18.210Z,101081.56
2018-06-08T14:21:45.103Z,101082.28
2018-06-08T14:24:12.008Z,101081.86
2018-06-08T14:26:38.887Z,101071.14
2018-06-08T14:29:05.765Z,101077.52
2018-06-08T14:31:32.664Z,101080.80
2018-06-08T14:33:59.566Z,101067.21
2018-06-08T14:36:26.478Z,101067.14
2018-06-08T14:38:53.361Z,101073.20
2018-06-08T14:41:20.269Z,101064.58
2018-06-08T14:43:47.142Z,101069.12
2018-06-08T14:46:14.029Z,101071.88
2018-06-08T14:48:40.904Z,101070.40
2018-06-08T14:51:07.802Z,101061.02
2018-06-08T14:53:34.687Z,101058.93
2018-06-08T14:56:01.557Z,101065.34
2018-06-08T14:58:28.436Z,101062.38
2018-06-08T15:00:55.311Z,101059.73
2018-06-08T15:03:22.188Z,101053.86
2018-06-08T15:05:49.054Z,101057.80
2018-06-08T15:08:15.917Z,101052.95
2018-06-08T15:10:42.788Z,101059.38
2018-06-08T15:13:09.663Z,101063.08
2018-06-08T15:15:36.556Z,101058.14
2018-06-08T15:18:03.465Z,101047.15
2018-06-08T15:20:30.348Z,101054.30
2018-06-08T15:22:57.247Z,101051.77
2018-06-08T15:25:24.133Z,101056.86
2018-06-08T15:27:51.032Z,101058.17
2018-06-08T15:30:17.919Z,101054.30
2018-06-08T15:32:44.816Z,101059.94
2018-06-08T15:35:11.708Z,101056.45
2018-06-08T15:37:38.647Z,101053.81
2018-06-08T15:40:05.570Z,101056.53
2018-06-08T15:42:32.469Z,101050.02
2018-06-08T15:44:59.368Z,101046.63
2018-06-08T15:47:26.289Z,101046.09
2018-06-08T15:49:53.182Z,101054.06
2018-06-08T15:52:20.093Z,101057.23
2018-06-08T15:54:46.998Z,101055.92
2018-06-08T15:57:13.893Z,101050.02
2018-06-08T15:59:40.793Z,101052.50
2018-06-08T16:02:07.689Z,101054.02
2018-06-08T16:04:34.607Z,101053.20
2018-06-08T16:07:01.504Z,101055.73
2018-06-08T16:09:28.415Z,101049.12
2018-06-08T16:11:55.301Z,101051.60
2018-06-08T16:14:22.223Z,101043.07
2018-06-08T16:16:49.138Z,101047.70
2018-06-08T16:19:16.052Z,101041.19
2018-06-08T16:21:42.938Z,101051.66
2018-06-08T16:24:09.823Z,101047.41
2018-06-08T16:26:36.702Z,101043.49
2018-06-08T16:29:03.612Z,101047.27
2018-06-08T16:31:30.497Z,101044.34
2018-06-08T16:33:57.383Z,101045.91
2018-06-08T16:36:24.269Z,101046.89
2018-06-08T16:38:51.152Z,101048.60
2018-06-08T16:41:18.021Z,101048.49
2018-06-08T16:43:44.918Z,101048.05
2018-06-08T16:46:11.800Z,101059.63
2018-06-08T16:48:38.686Z,101054.48
2018-06-08T16:51:05.900Z,101060.25
2018-06-08T16:53:32.787Z,101050.60
2018-06-08T16:55:59.657Z,101055.02
2018-06-08T16:58:26.532Z,101052.06
2018-06-08T17:00:53.429Z,101060.67
2018-06-08T17:03:20.322Z,101056.72
2018-06-08T17:05:47.214Z,101049.95
2018-06-08T17:08:14.096Z,101056.37
2018-06-08T17:10:40.997Z,101054.39
2018-06-08T17:13:08.108Z,101052.35
2018-06-08T17:15:35.001Z,101050.11
2018-06-08T17:18:01.893Z,101045.36
2018-06-08T17:20:28.780Z,101043.92
2018-06-08T17:22:55.694Z,101048.02
2018-06-08T17:25:22.617Z,101045.22
2018-06-08T17:27:49.516Z,101045.38
2018-06-08T17:30:16.433Z,101049.06
2018-06-08T17:32:43.316Z,101047.70
2018-06-08T17:35:10.212Z,101050.58
2018-06-08T17:37:37.112Z,101047.77
2018-06-08T17:40:04.324Z,101050.22
2018-06-08T17:42:31.221Z,101058.44
2018-06-08T17:44:58.139Z,101057.14
2018-06-08T17:47:25.053Z,101059.10
2018-06-08T17:52:26.100Z,101056.31
2018-06-08T17:54:53.004Z,101052.98
2018-06-08T17:57:19.985Z,101057.17
2018-06-08T17:59:46.812Z,101059.14
2018-06-08T18:02:13.716Z,101060.66
2018-06-08T18:04:40.620Z,101056.33
2018-06-08T18:07:07.526Z,101057.32
2018-06-08T18:09:34.431Z,101061.13
2018-06-08T18:12:01.324Z,101061.63
2018-06-08T18:14:28.232Z,101057.37
2018-06-08T18:16:55.148Z,101062.09
2018-06-08T18:19:22.061Z,101056.71
2018-06-08T18:21:48.968Z,101062.68
2018-06-08T18:24:15.846Z,101063.01
2018-06-08T18:26:42.732Z,101063.97
2018-06-08T18:29:09.603Z,101069.73
2018-06-08T18:31:36.488Z,101064.20
2018-06-08T18:34:03.448Z,101059.39
2018-06-08T18:36:30.341Z,101067.34
2018-06-08T18:38:57.223Z,101062.92
2018-06-08T18:41:24.144Z,101065.62
2018-06-08T18:43:51.012Z,101067.56
2018-06-08T18:46:17.887Z,101065.69
2018-06-08T18:48:44.756Z,101061.23
2018-06-08T18:51:11.651Z,101064.22
2018-06-08T18:53:38.512Z,101067.98
2018-06-08T18:56:05.416Z,101074.86
2018-06-08T18:58:32.300Z,101078.19
2018-06-08T19:00:59.178Z,101072.58
2018-06-08T19:03:26.065Z,101084.56
2018-06-08T19:05:52.952Z,101079.02
2018-06-08T19:08:19.834Z,101077.98
2018-06-08T19:10:46.728Z,101082.59
2018-06-08T19:13:13.625Z,101082.62
2018-06-08T19:15:40.512Z,101080.59
2018-06-08T19:18:07.392Z,101085.38
2018-06-08T19:20:34.263Z,101085.63
2018-06-08T19:23:01.174Z,101082.45
2018-06-08T19:25:28.087Z,101081.92
2018-06-08T19:27:54.996Z,101088.77
2018-06-08T19:30:21.912Z,101087.09
2018-06-08T19:32:48.817Z,101088.03
2018-06-08T19:35:15.724Z,101089.42
2018-06-08T19:37:42.630Z,101087.33
2018-06-08T19:40:09.532Z,101086.67
2018-06-08T19:42:36.431Z,101087.16
2018-06-08T19:45:03.780Z,101086.34
2018-06-08T19:47:30.688Z,101094.89
2018-06-08T19:49:57.572Z,101093.50
2018-06-08T19:52:24.477Z,101090.79
2018-06-08T19:54:51.388Z,101088.30
2018-06-08T19:57:18.370Z,101090.84
2018-06-08T19:59:45.289Z,101092.85
2018-06-08T20:02:12.260Z,101091.92
2018-06-08T20:04:39.171Z,101099.49
2018-06-08T20:07:06.084Z,101098.66
2018-06-08T20:09:32.999Z,101098.35
2018-06-08T20:11:59.904Z,101099.39
2018-06-08T20:14:26.801Z,101097.72
2018-06-08T20:16:53.700Z,101101.66
2018-06-08T20:19:21.391Z,101107.98
2018-06-08T20:21:48.324Z,101112.20
2018-06-08T20:24:15.230Z,101114.11
2018-06-08T20:26:42.136Z,101113.77
2018-06-08T20:29:09.055Z,101113.17
2018-06-08T20:31:35.975Z,101110.00
2018-06-08T20:34:02.856Z,101114.34
2018-06-08T20:36:29.753Z,101108.48
2018-06-08T20:38:56.636Z,101102.52
2018-06-08T20:41:23.544Z,101107.44
2018-06-08T20:43:50.428Z,101102.25
2018-06-08T20:46:17.331Z,101100.91
2018-06-08T20:48:44.210Z,101105.51
2018-06-08T20:51:11.110Z,101110.81
2018-06-08T20:53:38.000Z,101114.75
2018-06-08T20:56:04.925Z,101108.11
2018-06-08T20:58:31.815Z,101106.11
2018-06-08T21:00:58.708Z,101103.05
2018-06-08T21:03:25.640Z,101103.41
2018-06-08T21:05:52.525Z,101105.65
2018-06-08T21:08:19.421Z,101098.23
2018-06-08T21:10:46.321Z,101106.02
2018-06-08T21:13:13.225Z,101110.55
2018-06-08T21:15:40.120Z,101105.16
2018-06-08T21:18:07.007Z,101101.23
2018-06-08T21:20:33.888Z,101100.06
2018-06-08T21:23:00.799Z,101094.22
2018-06-08T21:25:27.689Z,101103.25
2018-06-08T21:27:54.595Z,101107.36
2018-06-08T21:30:21.487Z,101107.47
2018-06-08T21:32:48.390Z,101104.57
2018-06-08T21:35:15.307Z,101107.38
2018-06-08T21:37:42.208Z,101108.94
2018-06-08T21:40:09.116Z,101108.85
2018-06-08T21:42:36.012Z,101107.51
2018-06-08T21:45:02.939Z,101105.48
2018-06-08T21:47:29.835Z,101111.69
2018-06-08T21:49:56.735Z,101109.84
2018-06-08T21:52:23.646Z,101119.23
2018-06-08T21:54:50.545Z,101117.60
2018-06-08T21:57:17.474Z,101112.62
2018-06-08T21:59:44.380Z,101115.37
2018-06-08T22:02:11.315Z,101118.54
2018-06-08T22:04:38.228Z,101118.85
2018-06-08T22:07:05.182Z,101124.97
2018-06-08T22:09:32.093Z,101118.34
2018-06-08T22:11:59.000Z,101120.25
2018-06-08T22:14:25.984Z,101123.70
2018-06-08T22:16:52.828Z,101125.61
2018-06-08T22:19:19.744Z,101124.53
2018-06-08T22:21:46.664Z,101126.57
2018-06-08T22:24:13.568Z,101120.45
2018-06-08T22:26:40.463Z,101115.99
2018-06-08T22:29:07.397Z,101116.80
2018-06-08T22:31:34.279Z,101122.61
2018-06-08T22:34:01.180Z,101122.61
2018-06-08T22:36:28.073Z,101120.30
2018-06-08T22:38:54.998Z,101119.66
2018-06-08T22:41:21.911Z,101130.77
2018-06-08T22:43:48.812Z,101123.95
2018-06-08T22:46:15.732Z,101121.23
2018-06-08T22:48:42.652Z,101125.34
2018-06-08T22:51:09.555Z,101119.05
2018-06-08T22:53:36.461Z,101122.87
2018-06-08T22:56:03.380Z,101119.63
2018-06-08T22:58:30.287Z,101129.30
2018-06-08T23:00:57.270Z,101122.18
2018-06-08T23:03:24.111Z,101120.39
2018-06-08T23:05:51.032Z,101117.16
2018-06-08T23:08:17.965Z,101118.23
2018-06-08T23:10:44.870Z,101116.03
2018-06-08T23:13:11.787Z,101115.82
2018-06-08T23:15:38.679Z,101113.06
2018-06-08T23:18:05.592Z,101109.72
2018-06-08T23:20:32.492Z,101112.57
2018-06-08T23:22:59.384Z,101104.86
2018-06-08T23:25:26.280Z,101109.77
2018-06-08T23:27:53.203Z,101110.30
2018-06-08T23:30:20.089Z,101111.81
2018-06-08T23:32:46.973Z,101115.17
2018-06-08T23:35:13.863Z,101108.27
2018-06-08T23:37:40.752Z,101102.28
2018-06-08T23:40:07.653Z,101103.53
2018-06-08T23:42:34.560Z,101105.37
2018-06-08T23:45:01.466Z,101102.14
2018-06-08T23:47:28.365Z,101105.13
2018-06-08T23:49:55.256Z,101102.20
2018-06-08T23:52:22.152Z,101102.85
2018-06-08T23:54:49.047Z,101099.93
2018-06-08T23:57:15.912Z,101097.00
2018-06-08T23:59:43.316Z,101100.09
